Time;durP1;ratioP1;P1;durP2;ratioP2;P2;SDS_P1;SDS_P2;PMS_P1;PMS_P2;Temp;Humidity;BMP_temperature;BMP_pressure;BME280_temperature;BME280_humidity;BME280_pressure;Samples;Min_cycle;Max_cycle;Signal;HPM_P1;HPM_P2
2023/02/09 00:00:54;;;;;;;14.50;7.50;;;;;;;;;;5102653;28;20044;-71
2023/02/09 00:03:20;;;;;;;15.15;7.18;;;;;;;;;;5100743;28;20050;-71
2023/02/09 00:05:46;;;;;;;26.02;7.60;;;;;;;;;;5101047;28;20040;-71
2023/02/09 00:08:12;;;;;;;11.45;6.57;;;;;;;;;;5101114;28;20654;-71
2023/02/09 00:10:39;;;;;;;15.23;7.25;;;;;;;;;;5102052;28;20050;-71
2023/02/09 00:13:23;;;;;;;12.10;6.97;;;;;;;;;;5081927;28;20141;-72
2023/02/09 00:15:49;;;;;;;;;;;;;;;;;;5102167;28;20032;-72
2023/02/09 00:18:15;;;;;;;14.30;7.32;;;;;;;;;;5102335;28;19932;-71
2023/02/09 00:20:42;;;;;;;13.07;7.18;;;;;;;;;;5085249;28;20050;-71
2023/02/09 00:23:08;;;;;;;13.38;7.45;;;;;;;;;;5099583;28;20039;-71
2023/02/09 00:25:34;;;;;;;15.45;7.00;;;;;;;;;;5100106;28;20483;-71
2023/02/09 00:28:00;;;;;;;14.32;7.85;;;;;;;;;;5100915;28;20040;-71
2023/02/09 00:30:27;;;;;;;15.13;7.38;;;;;;;;;;5082629;28;20055;-71
2023/02/09 00:32:53;;;;;;;18.55;7.13;;;;;;;;;;5096491;28;20046;-71
2023/02/09 00:35:19;;;;;;;14.57;7.20;;;;;;;;;;5079710;28;20043;-71
2023/02/09 00:37:45;;;;;;;17.65;7.95;;;;;;;;;;5078699;28;20063;-71
2023/02/09 00:40:11;;;;;;;14.90;7.35;;;;;;;;;;5097440;28;20051;-71
2023/02/09 00:42:38;;;;;;;18.17;8.23;;;;;;;;;;5082132;28;20125;-71
2023/02/09 00:45:04;;;;;;;13.40;6.55;;;;;;;;;;5100412;28;20136;-71
2023/02/09 00:47:30;;;;;;;18.13;6.68;;;;;;;;;;5078023;28;20384;-71
2023/02/09 00:49:56;;;;;;;14.20;6.70;;;;;;;;;;5099055;28;20557;-71
2023/02/09 00:52:22;;;;;;;13.65;7.65;;;;;;;;;;5097657;28;20040;-71
2023/02/09 00:54:49;;;;;;;16.63;6.60;;;;;;;;;;5100212;28;20062;-71
2023/02/09 00:57:15;;;;;;;16.00;6.88;;;;;;;;;;5100045;28;20047;-71
2023/02/09 00:59:41;;;;;;;14.73;7.38;;;;;;;;;;5081604;28;20154;-71
2023/02/09 01:02:07;;;;;;;14.88;7.38;;;;;;;;;;5080386;28;20048;-71
2023/02/09 01:04:33;;;;;;;15.32;7.60;;;;;;;;;;5098559;28;20070;-71
2023/02/09 01:06:59;;;;;;;16.85;7.35;;;;;;;;;;5094983;28;20050;-71
2023/02/09 01:09:26;;;;;;;16.67;7.00;;;;;;;;;;5097008;28;20043;-72
2023/02/09 01:11:52;;;;;;;16.33;7.32;;;;;;;;;;5099298;28;20660;-71
2023/02/09 01:14:18;;;;;;;15.32;8.15;;;;;;;;;;5099604;28;20044;-71
2023/02/09 01:16:44;;;;;;;16.58;6.45;;;;;;;;;;5096936;28;20040;-71
2023/02/09 01:19:11;;;;;;;17.88;9.00;;;;;;;;;;5079785;28;20050;-71
2023/02/09 01:21:38;;;;;;;13.57;7.03;;;;;;;;;;5099223;28;20071;-71
2023/02/09 01:24:04;;;;;;;17.38;7.20;;;;;;;;;;5081651;28;20055;-71
2023/02/09 01:26:30;;;;;;;18.88;8.13;;;;;;;;;;5098604;28;20508;-71
2023/02/09 01:28:56;;;;;;;13.93;7.80;;;;;;;;;;5100549;28;20048;-71
2023/02/09 01:31:25;;;;;;;13.82;6.78;;;;;;;;;;5099071;28;20051;-71
2023/02/09 01:33:53;;;;;;;13.48;8.18;;;;;;;;;;5095492;28;20447;-71
2023/02/09 01:36:19;;;;;;;16.23;7.75;;;;;;;;;;5081137;28;20032;-71
2023/02/09 01:38:45;;;;;;;15.70;7.95;;;;;;;;;;5095229;28;20044;-71
2023/02/09 01:41:12;;;;;;;15.77;7.75;;;;;;;;;;5095073;28;20051;-71
2023/02/09 01:43:50;;;;;;;17.88;8.38;;;;;;;;;;5078004;28;20143;-71
2023/02/09 01:46:17;;;;;;;17.40;8.68;;;;;;;;;;5075759;28;20449;-71
2023/02/09 01:48:43;;;;;;;14.75;8.05;;;;;;;;;;5080685;28;20050;-71
2023/02/09 01:51:10;;;;;;;16.30;7.82;;;;;;;;;;5096460;28;20108;-71
2023/02/09 01:53:36;;;;;;;15.75;7.53;;;;;;;;;;5100221;28;20346;-71
2023/02/09 01:56:10;;;;;;;15.18;7.82;;;;;;;;;;5097416;28;20059;-71
2023/02/09 01:58:37;;;;;;;18.35;7.68;;;;;;;;;;5095032;28;20043;-71
2023/02/09 02:01:03;;;;;;;11.75;6.97;;;;;;;;;;5079678;28;20042;-71
2023/02/09 02:03:31;;;;;;;19.92;8.07;;;;;;;;;;5098546;28;20539;-71
2023/02/09 02:06:01;;;;;;;15.70;8.25;;;;;;;;;;5078091;28;20554;-70
2023/02/09 02:08:35;;;;;;;18.70;7.28;;;;;;;;;;5098066;28;20039;-71
2023/02/09 02:11:02;;;;;;;13.90;7.57;;;;;;;;;;5080866;28;20370;-71
2023/02/09 02:13:28;;;;;;;15.52;7.20;;;;;;;;;;5095638;28;20071;-71
2023/02/09 02:15:58;;;;;;;14.75;7.47;;;;;;;;;;5079453;28;20096;-71
2023/02/09 02:18:42;;;;;;;19.98;8.93;;;;;;;;;;5096406;28;20314;-71
2023/02/09 02:21:37;;;;;;;11.88;6.13;;;;;;;;;;5095274;28;20050;-71
2023/02/09 02:24:04;;;;;;;12.98;7.65;;;;;;;;;;5079459;28;20040;-71
2023/02/09 02:26:42;;;;;;;17.85;7.55;;;;;;;;;;5098187;28;20063;-71
2023/02/09 02:29:13;;;;;;;14.60;8.25;;;;;;;;;;5097032;28;20047;-71
2023/02/09 02:32:02;;;;;;;15.15;7.38;;;;;;;;;;5095232;28;20048;-71
2023/02/09 02:34:41;;;;;;;15.38;7.38;;;;;;;;;;5098172;28;20040;-71
2023/02/09 02:37:18;;;;;;;14.75;7.32;;;;;;;;;;5097568;28;20113;-71
2023/02/09 02:39:50;;;;;;;15.85;8.05;;;;;;;;;;5094913;28;20133;-71
2023/02/09 02:42:47;;;;;;;13.55;7.50;;;;;;;;;;5097595;28;20056;-71
2023/02/09 02:45:20;;;;;;;14.20;6.93;;;;;;;;;;5096771;28;20046;-71
2023/02/09 02:47:49;;;;;;;15.15;6.70;;;;;;;;;;5099202;28;20052;-71
2023/02/09 02:50:18;;;;;;;16.20;7.32;;;;;;;;;;5098560;28;20044;-71
2023/02/09 02:52:46;;;;;;;15.15;7.45;;;;;;;;;;5097783;28;20075;-71
2023/02/09 02:55:14;;;;;;;12.82;7.43;;;;;;;;;;5078586;28;20046;-71
2023/02/09 02:57:42;;;;;;;13.88;7.18;;;;;;;;;;5095227;28;20050;-71
2023/02/09 03:00:11;;;;;;;13.50;6.65;;;;;;;;;;5099451;28;20491;-71
2023/02/09 03:02:39;;;;;;;12.88;7.05;;;;;;;;;;5098954;28;20052;-71
2023/02/09 03:05:06;;;;;;;25.60;9.80;;;;;;;;;;5083039;28;20185;-71
2023/02/09 03:07:32;;;;;;;20.17;7.45;;;;;;;;;;5079605;28;20040;-71
2023/02/09 03:09:58;;;;;;;16.35;8.57;;;;;;;;;;5095222;28;20116;-71
2023/02/09 03:12:26;;;;;;;16.65;7.43;;;;;;;;;;5082040;28;20123;-71
2023/02/09 03:14:55;;;;;;;15.90;7.70;;;;;;;;;;5100642;28;20072;-71
2023/02/09 03:17:21;;;;;;;16.92;8.38;;;;;;;;;;5096838;28;20079;-71
2023/02/09 03:19:57;;;;;;;15.38;7.15;;;;;;;;;;5094531;28;20040;-71
2023/02/09 03:22:29;;;;;;;18.00;8.18;;;;;;;;;;5079640;28;20459;-71
2023/02/09 03:25:06;;;;;;;13.27;7.13;;;;;;;;;;5098964;28;20044;-71
2023/02/09 03:27:35;;;;;;;11.43;6.75;;;;;;;;;;5093569;28;20047;-71
2023/02/09 03:30:03;;;;;;;16.00;8.00;;;;;;;;;;5097361;28;20043;-71
2023/02/09 03:32:29;;;;;;;13.88;7.10;;;;;;;;;;5081612;28;20052;-71
2023/02/09 03:34:56;;;;;;;13.93;7.25;;;;;;;;;;5084948;28;20471;-71
2023/02/09 03:37:22;;;;;;;15.88;7.47;;;;;;;;;;5100060;28;20062;-71
2023/02/09 03:39:49;;;;;;;14.88;8.18;;;;;;;;;;5098366;28;20139;-71
2023/02/09 03:42:15;;;;;;;14.15;7.80;;;;;;;;;;5103787;28;20052;-70
2023/02/09 03:44:41;;;;;;;14.50;7.07;;;;;;;;;;5103786;28;20159;-72
2023/02/09 03:47:08;;;;;;;14.07;7.47;;;;;;;;;;5103504;28;20065;-71
2023/02/09 03:49:38;;;;;;;13.93;6.90;;;;;;;;;;5081915;28;20101;-71
2023/02/09 03:52:04;;;;;;;13.85;7.00;;;;;;;;;;5107513;28;20047;-71
2023/02/09 03:54:31;;;;;;;15.18;7.75;;;;;;;;;;5084358;28;20055;-71
2023/02/09 03:56:59;;;;;;;13.52;7.30;;;;;;;;;;5098833;28;21696;-71
2023/02/09 03:59:25;;;;;;;14.38;7.95;;;;;;;;;;5098198;28;20035;-71
2023/02/09 04:01:52;;;;;;;13.10;7.63;;;;;;;;;;5099828;28;20036;-71
2023/02/09 04:04:19;;;;;;;15.57;7.70;;;;;;;;;;5102870;28;20062;-71
2023/02/09 04:06:46;;;;;;;15.75;7.63;;;;;;;;;;5098054;28;20047;-71
2023/02/09 04:09:12;;;;;;;13.38;7.15;;;;;;;;;;5100038;28;20379;-71
2023/02/09 04:11:38;;;;;;;15.35;7.80;;;;;;;;;;5099056;28;20584;-71
2023/02/09 04:14:05;;;;;;;17.80;7.72;;;;;;;;;;5083602;28;20040;-71
2023/02/09 04:16:31;;;;;;;14.23;6.95;;;;;;;;;;5083473;28;20089;-71
2023/02/09 04:18:57;;;;;;;12.65;7.32;;;;;;;;;;5100289;28;20044;-71
2023/02/09 04:21:24;;;;;;;14.13;8.15;;;;;;;;;;5101800;28;20131;-71
2023/02/09 04:23:50;;;;;;;15.07;8.10;;;;;;;;;;5083803;28;20047;-71
2023/02/09 04:26:16;;;;;;;21.13;10.27;;;;;;;;;;5100140;28;20046;-71
2023/02/09 04:28:43;;;;;;;13.00;7.32;;;;;;;;;;5099242;28;20115;-71
2023/02/09 04:31:09;;;;;;;13.73;8.05;;;;;;;;;;5099773;28;20044;-71
2023/02/09 04:33:36;;;;;;;18.08;8.27;;;;;;;;;;5098555;28;20556;-71
2023/02/09 04:36:02;;;;;;;15.27;8.13;;;;;;;;;;5084450;28;20035;-71
2023/02/09 04:38:29;;;;;;;14.07;7.43;;;;;;;;;;5082778;28;20460;-71
2023/02/09 04:40:55;;;;;;;15.05;8.18;;;;;;;;;;5101363;28;20051;-71
2023/02/09 04:43:21;;;;;;;14.90;8.02;;;;;;;;;;5094948;28;20126;-71
2023/02/09 04:45:48;;;;;;;18.00;8.50;;;;;;;;;;5100159;28;20134;-71
2023/02/09 04:48:15;;;;;;;19.45;8.23;;;;;;;;;;5098744;28;20127;-72
2023/02/09 04:50:41;;;;;;;14.68;8.80;;;;;;;;;;5102705;28;20058;-71
2023/02/09 04:53:08;;;;;;;15.05;8.00;;;;;;;;;;5081369;28;20044;-71
2023/02/09 04:55:37;;;;;;;13.25;6.93;;;;;;;;;;5078923;28;20047;-72
2023/02/09 05:00:49;;;;;;;15.77;8.32;;;;;;;;;;5101231;28;20376;-72
2023/02/09 05:03:15;;;;;;;15.25;7.80;;;;;;;;;;5083660;28;20062;-72
2023/02/09 05:05:41;;;;;;;15.98;7.75;;;;;;;;;;5100517;28;20048;-72
2023/02/09 05:08:07;;;;;;;16.67;8.85;;;;;;;;;;5096554;28;20160;-71
2023/02/09 05:10:34;;;;;;;17.10;8.40;;;;;;;;;;5080667;28;20051;-71
2023/02/09 05:13:00;;;;;;;15.32;8.15;;;;;;;;;;5098351;28;20036;-71
2023/02/09 05:15:26;;;;;;;14.13;8.13;;;;;;;;;;5097535;28;20475;-72
2023/02/09 05:17:53;;;;;;;16.50;9.18;;;;;;;;;;5081296;28;20483;-71
2023/02/09 05:20:19;;;;;;;15.32;8.35;;;;;;;;;;5098211;28;20047;-71
2023/02/09 05:22:45;;;;;;;14.52;8.25;;;;;;;;;;5096721;28;20387;-71
2023/02/09 05:25:11;;;;;;;15.23;7.80;;;;;;;;;;5098983;28;20081;-71
2023/02/09 05:27:37;;;;;;;15.32;8.43;;;;;;;;;;5099478;28;20144;-71
2023/02/09 05:30:04;;;;;;;16.55;8.07;;;;;;;;;;5080295;28;20051;-71
2023/02/09 05:32:30;;;;;;;16.00;8.18;;;;;;;;;;5098535;28;20118;-71
2023/02/09 05:34:56;;;;;;;16.75;8.20;;;;;;;;;;5098058;28;20044;-71
2023/02/09 05:37:23;;;;;;;20.00;8.70;;;;;;;;;;5095223;28;20550;-71
2023/02/09 05:39:50;;;;;;;17.42;9.32;;;;;;;;;;5082488;28;20092;-72
2023/02/09 05:42:16;;;;;;;17.00;8.32;;;;;;;;;;5068339;28;20522;-72
2023/02/09 05:44:48;;;;;;;16.38;8.13;;;;;;;;;;5065194;28;20043;-72
2023/02/09 05:47:15;;;;;;;16.15;7.55;;;;;;;;;;5079788;28;20047;-72
2023/02/09 05:49:42;;;;;;;17.02;8.98;;;;;;;;;;5094073;28;20534;-72
2023/02/09 05:52:08;;;;;;;19.65;8.77;;;;;;;;;;5095358;28;20048;-72
2023/02/09 05:54:35;;;;;;;16.92;9.35;;;;;;;;;;5097777;28;20043;-71
2023/02/09 05:57:01;;;;;;;15.98;8.63;;;;;;;;;;5099189;28;20054;-72
2023/02/09 05:59:27;;;;;;;17.88;8.35;;;;;;;;;;5095224;28;20497;-72
2023/02/09 06:01:54;;;;;;;16.92;8.30;;;;;;;;;;5101586;28;20088;-72
2023/02/09 06:04:20;;;;;;;17.75;8.48;;;;;;;;;;5073629;28;20847;-71
2023/02/09 06:06:46;;;;;;;15.77;9.13;;;;;;;;;;5102678;28;20028;-71
2023/02/09 06:09:12;;;;;;;14.73;8.60;;;;;;;;;;5097887;28;20114;-71
2023/02/09 06:11:38;;;;;;;16.45;8.82;;;;;;;;;;5101261;28;20408;-71
2023/02/09 06:14:05;;;;;;;15.65;8.77;;;;;;;;;;5080641;28;20501;-71
2023/02/09 06:16:31;;;;;;;16.98;8.85;;;;;;;;;;5096172;28;20054;-71
2023/02/09 06:18:57;;;;;;;17.58;9.48;;;;;;;;;;5100279;28;20040;-71
2023/02/09 06:21:23;;;;;;;14.65;8.35;;;;;;;;;;5082722;28;20056;-71
2023/02/09 06:23:50;;;;;;;17.23;9.55;;;;;;;;;;5099220;28;21282;-71
2023/02/09 06:26:16;;;;;;;17.42;9.85;;;;;;;;;;5091839;28;20043;-71
2023/02/09 06:28:43;;;;;;;19.10;9.52;;;;;;;;;;5096139;28;20047;-70
2023/02/09 06:31:09;;;;;;;19.67;10.38;;;;;;;;;;5092429;28;20355;-70
2023/02/09 06:33:36;;;;;;;18.38;10.05;;;;;;;;;;5080252;28;20051;-71
2023/02/09 06:36:03;;;;;;;21.52;10.30;;;;;;;;;;5093734;28;20416;-71
2023/02/09 06:38:30;;;;;;;18.42;10.15;;;;;;;;;;5080150;28;20184;-72
2023/02/09 06:40:56;;;;;;;23.70;10.60;;;;;;;;;;5094552;28;20056;-71
2023/02/09 06:43:22;;;;;;;19.73;10.02;;;;;;;;;;5097304;28;20039;-70
2023/02/09 06:45:49;;;;;;;20.50;11.27;;;;;;;;;;5075636;28;20043;-70
2023/02/09 06:48:15;;;;;;;18.00;9.45;;;;;;;;;;5094537;28;20048;-70
2023/02/09 06:50:41;;;;;;;20.77;9.55;;;;;;;;;;5094654;28;20327;-70
2023/02/09 06:53:07;;;;;;;18.77;9.65;;;;;;;;;;5075068;28;20438;-70
2023/02/09 06:55:34;;;;;;;16.35;10.00;;;;;;;;;;5100726;28;20172;-71
2023/02/09 06:58:00;;;;;;;19.20;9.95;;;;;;;;;;5075429;28;20048;-71
2023/02/09 07:00:26;;;;;;;16.52;9.95;;;;;;;;;;5092889;28;20391;-70
2023/02/09 07:02:53;;;;;;;21.13;10.68;;;;;;;;;;5095376;28;20043;-71
2023/02/09 07:05:19;;;;;;;17.38;9.45;;;;;;;;;;5077000;28;20705;-70
2023/02/09 07:07:46;;;;;;;16.00;9.32;;;;;;;;;;5095412;28;20043;-69
2023/02/09 07:10:14;;;;;;;20.38;10.48;;;;;;;;;;5092522;28;20048;-70
2023/02/09 07:12:42;;;;;;;21.50;10.38;;;;;;;;;;5093047;28;20139;-70
2023/02/09 07:15:08;;;;;;;20.90;10.38;;;;;;;;;;5073755;28;20067;-70
2023/02/09 07:17:34;;;;;;;18.73;10.32;;;;;;;;;;5076833;28;20032;-70
2023/02/09 07:20:00;;;;;;;16.50;9.80;;;;;;;;;;5094371;28;20040;-70
2023/02/09 07:22:27;;;;;;;22.63;11.40;;;;;;;;;;5074367;28;20042;-70
2023/02/09 07:24:53;;;;;;;22.10;10.35;;;;;;;;;;5092016;28;20131;-70
2023/02/09 07:27:19;;;;;;;19.92;9.85;;;;;;;;;;5075483;28;20060;-69
2023/02/09 07:29:45;;;;;;;21.88;9.98;;;;;;;;;;5089303;28;20055;-70
2023/02/09 07:32:12;;;;;;;17.42;10.23;;;;;;;;;;5074271;28;20046;-72
2023/02/09 07:34:38;;;;;;;24.02;10.40;;;;;;;;;;5092307;28;20035;-72
2023/02/09 07:37:04;;;;;;;19.25;10.60;;;;;;;;;;5075202;28;20044;-71
2023/02/09 07:39:31;;;;;;;16.55;10.68;;;;;;;;;;5093578;28;20079;-71
2023/02/09 07:41:57;;;;;;;17.85;10.35;;;;;;;;;;5077072;28;20150;-71
2023/02/09 07:44:24;;;;;;;21.83;10.93;;;;;;;;;;5075685;28;20082;-72
2023/02/09 07:46:50;;;;;;;19.50;9.80;;;;;;;;;;5075554;28;20132;-72
2023/02/09 07:49:17;;;;;;;18.45;11.20;;;;;;;;;;5072951;28;20044;-71
2023/02/09 07:51:43;;;;;;;18.02;10.77;;;;;;;;;;5076289;28;20060;-72
2023/02/09 07:54:12;;;;;;;19.52;10.73;;;;;;;;;;5094496;28;20487;-72
2023/02/09 07:56:38;;;;;;;17.75;10.50;;;;;;;;;;5093300;28;20479;-72
2023/02/09 07:59:05;;;;;;;16.90;10.52;;;;;;;;;;5095805;28;20039;-72
2023/02/09 08:01:32;;;;;;;16.25;9.63;;;;;;;;;;5091167;28;20086;-72
2023/02/09 08:03:58;;;;;;;18.25;10.43;;;;;;;;;;5092979;28;20043;-72
2023/02/09 08:06:28;;;;;;;17.63;10.65;;;;;;;;;;5091901;28;20054;-72
2023/02/09 08:08:54;;;;;;;16.58;10.23;;;;;;;;;;5094609;28;20056;-72
2023/02/09 08:11:25;;;;;;;18.75;10.68;;;;;;;;;;5092797;28;20044;-72
2023/02/09 08:13:53;;;;;;;18.38;10.57;;;;;;;;;;5094737;28;20052;-72
2023/02/09 08:16:21;;;;;;;21.38;10.23;;;;;;;;;;5096153;28;20122;-71
2023/02/09 08:18:49;;;;;;;16.95;10.05;;;;;;;;;;5097550;28;20066;-69
2023/02/09 08:21:16;;;;;;;19.05;10.77;;;;;;;;;;5095611;28;20176;-69
2023/02/09 08:23:43;;;;;;;19.83;10.43;;;;;;;;;;5078650;28;20079;-69
2023/02/09 08:26:10;;;;;;;18.92;10.88;;;;;;;;;;5077036;28;20036;-72
2023/02/09 08:28:37;;;;;;;27.63;11.35;;;;;;;;;;5081961;28;20044;-70
2023/02/09 08:31:03;;;;;;;18.80;11.05;;;;;;;;;;5097251;28;20063;-70
2023/02/09 08:33:30;;;;;;;21.88;10.85;;;;;;;;;;5077704;28;20472;-70
2023/02/09 08:35:56;;;;;;;18.45;11.45;;;;;;;;;;5099072;28;20518;-72
2023/02/09 08:38:22;;;;;;;18.88;10.73;;;;;;;;;;5077536;28;20058;-72
2023/02/09 08:40:48;;;;;;;19.90;11.05;;;;;;;;;;5096668;28;20132;-72
2023/02/09 08:43:14;;;;;;;21.95;11.07;;;;;;;;;;5079990;28;20517;-72
2023/02/09 08:45:41;;;;;;;18.55;11.40;;;;;;;;;;5078505;28;20052;-72
2023/02/09 08:48:09;;;;;;;22.02;12.32;;;;;;;;;;5076802;28;20047;-73
2023/02/09 08:50:35;;;;;;;17.17;11.38;;;;;;;;;;5076165;28;20084;-72
2023/02/09 08:53:02;;;;;;;18.35;10.55;;;;;;;;;;5095703;28;20054;-70
2023/02/09 08:55:29;;;;;;;19.95;11.65;;;;;;;;;;5079789;28;20051;-70
2023/02/09 08:57:55;;;;;;;18.33;10.88;;;;;;;;;;5076071;28;20392;-71
2023/02/09 09:00:21;;;;;;;17.27;10.55;;;;;;;;;;5093579;28;20683;-70
2023/02/09 09:02:47;;;;;;;21.60;11.30;;;;;;;;;;5096383;28;20040;-71
2023/02/09 09:05:14;;;;;;;22.33;11.82;;;;;;;;;;5096658;28;20388;-70
2023/02/09 09:07:40;;;;;;;19.20;11.55;;;;;;;;;;5076204;28;20048;-70
2023/02/09 09:10:07;;;;;;;19.67;10.82;;;;;;;;;;5076390;28;20464;-70
2023/02/09 09:12:34;;;;;;;20.27;11.95;;;;;;;;;;5077361;28;20043;-70
2023/02/09 09:15:00;;;;;;;18.63;11.77;;;;;;;;;;5093192;28;20195;-69
2023/02/09 09:17:27;;;;;;;19.05;11.95;;;;;;;;;;5072822;28;20130;-70
2023/02/09 09:19:55;;;;;;;20.42;12.05;;;;;;;;;;5073149;28;20047;-70
2023/02/09 09:22:22;;;;;;;20.40;11.85;;;;;;;;;;5090055;28;20392;-70
2023/02/09 09:24:48;;;;;;;22.30;12.23;;;;;;;;;;5071661;28;20048;-70
2023/02/09 09:27:15;;;;;;;22.40;13.10;;;;;;;;;;5073338;28;20377;-70
2023/02/09 09:29:41;;;;;;;26.75;13.10;;;;;;;;;;5079251;28;20047;-70
2023/02/09 09:32:12;;;;;;;24.60;13.00;;;;;;;;;;5074487;28;20449;-70
2023/02/09 09:34:38;;;;;;;20.75;12.25;;;;;;;;;;5091384;28;20388;-70
2023/02/09 09:37:05;;;;;;;21.30;13.27;;;;;;;;;;5090836;28;20048;-70
2023/02/09 09:39:31;;;;;;;23.38;13.27;;;;;;;;;;5097509;28;20046;-70
2023/02/09 09:41:59;;;;;;;19.73;12.88;;;;;;;;;;5091420;28;20496;-71
2023/02/09 09:44:29;;;;;;;21.63;13.82;;;;;;;;;;5102151;28;20052;-71
2023/02/09 09:47:00;;;;;;;22.70;13.70;;;;;;;;;;5095945;28;20035;-71
2023/02/09 09:49:28;;;;;;;20.33;12.77;;;;;;;;;;5095994;28;20047;-71
2023/02/09 09:51:58;;;;;;;23.00;12.48;;;;;;;;;;5098525;28;20054;-70
2023/02/09 09:54:29;;;;;;;23.27;14.25;;;;;;;;;;5096101;28;20130;-70
2023/02/09 09:56:55;;;;;;;22.55;13.93;;;;;;;;;;5074760;28;20151;-70
2023/02/09 09:59:30;;;;;;;26.42;13.32;;;;;;;;;;5098571;28;20051;-70
2023/02/09 10:01:57;;;;;;;20.42;12.88;;;;;;;;;;5092382;28;20576;-70
2023/02/09 10:04:23;;;;;;;28.60;14.32;;;;;;;;;;5090338;28;20047;-70
2023/02/09 10:06:55;;;;;;;27.33;15.20;;;;;;;;;;5089890;28;20042;-70
2023/02/09 10:09:24;;;;;;;23.77;14.38;;;;;;;;;;5092244;28;20051;-70
2023/02/09 10:11:56;;;;;;;24.27;13.43;;;;;;;;;;5071377;28;20039;-70
2023/02/09 10:14:22;;;;;;;23.17;13.48;;;;;;;;;;5097143;28;20044;-70
2023/02/09 10:16:48;;;;;;;24.48;14.05;;;;;;;;;;5097451;28;20067;-69
2023/02/09 10:19:19;;;;;;;23.85;13.88;;;;;;;;;;5097004;28;20036;-70
2023/02/09 10:21:46;;;;;;;21.00;13.40;;;;;;;;;;5078797;28;20044;-70
2023/02/09 10:24:15;;;;;;;23.08;14.05;;;;;;;;;;5093285;28;20046;-70
2023/02/09 10:26:41;;;;;;;23.88;14.23;;;;;;;;;;5096735;28;20044;-70
2023/02/09 10:29:21;;;;;;;26.35;15.52;;;;;;;;;;5095145;28;20380;-69
2023/02/09 10:31:52;;;;;;;22.67;13.93;;;;;;;;;;5092907;28;20051;-70
2023/02/09 10:34:20;;;;;;;22.52;13.82;;;;;;;;;;5093454;28;20119;-70
2023/02/09 10:36:50;;;;;;;26.63;14.65;;;;;;;;;;5100169;28;20055;-70
2023/02/09 10:39:18;;;;;;;27.90;15.32;;;;;;;;;;5076601;28;20180;-70
2023/02/09 10:41:46;;;;;;;25.92;15.07;;;;;;;;;;5099823;28;20056;-70
2023/02/09 10:44:18;;;;;;;25.23;14.40;;;;;;;;;;5085374;28;20039;-70
2023/02/09 10:46:46;;;;;;;25.50;13.73;;;;;;;;;;5101421;28;20108;-70
2023/02/09 10:49:26;;;;;;;27.92;15.23;;;;;;;;;;5099592;28;20525;-70
2023/02/09 10:52:00;;;;;;;24.85;14.07;;;;;;;;;;5099060;28;20090;-70
2023/02/09 10:54:27;;;;;;;28.77;16.38;;;;;;;;;;5098903;28;20044;-69
2023/02/09 10:56:54;;;;;;;29.55;15.77;;;;;;;;;;5099051;28;20587;-69
2023/02/09 10:59:22;;;;;;;27.60;14.85;;;;;;;;;;5094416;28;20035;-70
2023/02/09 11:01:54;;;;;;;28.25;16.42;;;;;;;;;;5096538;28;20054;-69
2023/02/09 11:04:22;;;;;;;31.60;16.70;;;;;;;;;;5075649;28;20545;-69
2023/02/09 11:07:08;;;;;;;30.35;16.38;;;;;;;;;;5093906;28;20068;-70
2023/02/09 11:09:36;;;;;;;29.13;16.35;;;;;;;;;;5093739;28;20043;-69
2023/02/09 11:12:02;;;;;;;29.92;16.85;;;;;;;;;;5093496;28;20462;-70
2023/02/09 11:14:28;;;;;;;30.13;16.70;;;;;;;;;;5092327;28;20226;-70
2023/02/09 11:17:13;;;;;;;24.88;16.08;;;;;;;;;;5079044;28;20501;-70
2023/02/09 11:20:00;;;;;;;25.85;15.13;;;;;;;;;;5092844;28;20048;-69
2023/02/09 11:22:39;;;;;;;24.45;15.15;;;;;;;;;;5082687;28;20045;-69
2023/02/09 11:25:05;;;;;;;25.73;14.70;;;;;;;;;;5076611;28;20055;-69
2023/02/09 11:27:42;;;;;;;28.67;16.17;;;;;;;;;;5074770;28;20485;-70
2023/02/09 11:30:08;;;;;;;25.13;15.27;;;;;;;;;;5077116;28;20051;-69
2023/02/09 11:32:45;;;;;;;28.30;16.27;;;;;;;;;;5095593;28;20055;-69
2023/02/09 11:35:13;;;;;;;25.25;16.20;;;;;;;;;;5075873;28;20047;-69
2023/02/09 11:37:39;;;;;;;30.13;16.95;;;;;;;;;;5076015;28;20081;-70
2023/02/09 11:40:12;;;;;;;30.77;16.30;;;;;;;;;;5096217;28;20052;-69
2023/02/09 11:42:42;;;;;;;33.50;16.65;;;;;;;;;;5091122;28;20048;-70
2023/02/09 11:45:11;;;;;;;32.20;18.20;;;;;;;;;;5061698;28;20123;-70
2023/02/09 11:47:51;;;;;;;33.55;17.83;;;;;;;;;;5093212;28;20420;-69
2023/02/09 11:50:23;;;;;;;28.83;16.75;;;;;;;;;;5079087;28;20055;-69
2023/02/09 11:52:52;;;;;;;31.45;18.20;;;;;;;;;;5083062;28;20035;-70
2023/02/09 11:55:28;;;;;;;36.88;17.48;;;;;;;;;;5099047;28;20052;-69
2023/02/09 11:58:00;;;;;;;31.85;17.15;;;;;;;;;;5098392;28;20071;-70
2023/02/09 12:00:28;;;;;;;28.60;17.33;;;;;;;;;;5100414;28;20328;-70
2023/02/09 12:02:58;;;;;;;27.13;17.40;;;;;;;;;;5097911;28;20098;-70
2023/02/09 12:05:25;;;;;;;27.13;17.27;;;;;;;;;;5099974;28;20090;-70
2023/02/09 12:08:05;;;;;;;29.98;18.48;;;;;;;;;;5098066;28;20237;-69
2023/02/09 12:10:42;;;;;;;29.42;17.50;;;;;;;;;;5095113;28;20039;-69
2023/02/09 12:13:13;;;;;;;29.67;16.45;;;;;;;;;;5095762;28;20043;-70
2023/02/09 12:15:43;;;;;;;31.33;17.50;;;;;;;;;;5079989;28;20077;-70
2023/02/09 12:18:12;;;;;;;27.48;16.35;;;;;;;;;;5079258;28;20467;-68
2023/02/09 12:20:38;;;;;;;29.45;17.77;;;;;;;;;;5079410;28;20047;-69
2023/02/09 12:23:16;;;;;;;29.25;17.25;;;;;;;;;;5077903;28;20497;-68
2023/02/09 12:25:59;;;;;;;32.17;17.23;;;;;;;;;;5097549;28;20107;-68
2023/02/09 12:28:26;;;;;;;28.00;17.60;;;;;;;;;;5094081;28;20132;-68
2023/02/09 12:30:53;;;;;;;28.27;17.00;;;;;;;;;;5099763;28;20372;-68
2023/02/09 12:33:27;;;;;;;30.10;19.38;;;;;;;;;;5097726;28;20044;-74
2023/02/09 12:35:59;;;;;;;32.60;18.08;;;;;;;;;;5097660;28;20134;-69
2023/02/09 12:38:40;;;;;;;30.55;17.27;;;;;;;;;;5098318;28;20055;-68
2023/02/09 12:41:07;;;;;;;33.63;18.05;;;;;;;;;;5081927;28;20389;-67
2023/02/09 12:43:35;;;;;;;28.83;17.77;;;;;;;;;;5099138;28;20070;-67
2023/02/09 12:46:13;;;;;;;30.83;18.00;;;;;;;;;;5099197;28;20058;-73
2023/02/09 12:48:49;;;;;;;29.95;16.50;;;;;;;;;;5095891;28;20040;-68
2023/02/09 12:51:34;;;;;;;32.25;18.83;;;;;;;;;;5096579;28;20044;-67
2023/02/09 12:54:00;;;;;;;29.85;17.30;;;;;;;;;;5098034;28;20058;-67
2023/02/09 12:56:28;;;;;;;29.77;17.92;;;;;;;;;;5082322;28;20440;-67
2023/02/09 12:58:55;;;;;;;34.33;18.23;;;;;;;;;;5100744;28;20262;-67
2023/02/09 13:01:28;;;;;;;31.85;17.48;;;;;;;;;;5083226;28;20439;-66
2023/02/09 13:03:59;;;;;;;29.93;17.70;;;;;;;;;;5082028;28;20570;-66
2023/02/09 13:06:39;;;;;;;28.55;17.17;;;;;;;;;;5099122;28;20389;-69
2023/02/09 13:09:08;;;;;;;32.78;17.40;;;;;;;;;;5078991;28;20062;-66
2023/02/09 13:11:46;;;;;;;29.98;17.80;;;;;;;;;;5099216;28;20043;-66
2023/02/09 13:14:14;;;;;;;30.63;18.92;;;;;;;;;;5076580;28;20048;-70
2023/02/09 13:16:54;;;;;;;36.90;19.02;;;;;;;;;;5095815;28;20046;-67
2023/02/09 13:19:44;;;;;;;34.28;19.38;;;;;;;;;;5098500;28;21644;-68
2023/02/09 13:22:25;;;;;;;27.25;18.30;;;;;;;;;;5093172;28;20035;-67
2023/02/09 13:24:58;;;;;;;34.65;17.85;;;;;;;;;;5098691;28;20228;-66
2023/02/09 13:27:24;;;;;;;30.42;18.55;;;;;;;;;;5095842;28;20048;-67
2023/02/09 13:29:53;;;;;;;34.83;18.50;;;;;;;;;;5096835;28;20077;-67
2023/02/09 13:32:25;;;;;;;28.73;18.42;;;;;;;;;;5092533;28;20118;-67
2023/02/09 13:34:57;;;;;;;30.25;18.90;;;;;;;;;;5096508;28;20035;-67
2023/02/09 13:37:34;;;;;;;31.63;19.42;;;;;;;;;;5080280;28;20066;-67
2023/02/09 13:40:01;;;;;;;33.90;19.75;;;;;;;;;;5098375;28;20359;-67
2023/02/09 13:42:29;;;;;;;32.25;19.45;;;;;;;;;;5097985;28;20047;-67
2023/02/09 13:44:56;;;;;;;36.80;19.88;;;;;;;;;;5079441;28;20066;-67
2023/02/09 13:47:23;;;;;;;37.85;19.92;;;;;;;;;;5097878;28;20040;-66
2023/02/09 13:50:00;;;;;;;34.38;20.23;;;;;;;;;;5080662;28;20043;-67
2023/02/09 13:52:32;;;;;;;41.75;22.63;;;;;;;;;;5097027;28;20499;-72
2023/02/09 13:55:07;;;;;;;37.22;22.23;;;;;;;;;;5099632;28;20097;-67
2023/02/09 13:57:35;;;;;;;40.00;23.08;;;;;;;;;;5094360;28;20050;-71
2023/02/09 14:00:07;;;;;;;47.53;23.52;;;;;;;;;;5075865;28;20095;-67
2023/02/09 14:02:34;;;;;;;35.92;22.95;;;;;;;;;;5093203;28;20491;-72
2023/02/09 14:05:01;;;;;;;39.20;24.98;;;;;;;;;;5097564;28;20092;-72
2023/02/09 14:07:30;;;;;;;39.70;23.08;;;;;;;;;;5077510;28;20054;-73
2023/02/09 14:10:01;;;;;;;47.42;23.80;;;;;;;;;;5080609;28;21348;-77
2023/02/09 14:12:51;;;;;;;39.65;23.13;;;;;;;;;;5098676;28;20460;-73
2023/02/09 14:18:20;;;;;;;41.30;24.40;;;;;;;;;;5091050;28;20051;-67
2023/02/09 14:20:58;;;;;;;42.10;24.63;;;;;;;;;;5095391;28;20083;-68
2023/02/09 14:23:26;;;;;;;43.20;26.27;;;;;;;;;;5078802;28;20085;-70
2023/02/09 14:26:03;;;;;;;52.58;28.38;;;;;;;;;;5076007;28;20214;-70
2023/02/09 14:28:29;;;;;;;45.33;27.45;;;;;;;;;;5096476;28;20036;-70
2023/02/09 14:30:56;;;;;;;47.47;26.38;;;;;;;;;;5098179;28;20047;-70
2023/02/09 14:33:23;;;;;;;45.88;27.58;;;;;;;;;;5094586;28;20079;-70
2023/02/09 14:35:54;;;;;;;47.33;28.52;;;;;;;;;;5075869;28;20047;-70
2023/02/09 14:38:37;;;;;;;41.58;26.23;;;;;;;;;;5063677;28;20031;-70